Flight Track Log - Related Links

Times and Time Zones

All times are in EDT time to prevent confusion due to time zone crossing. See the SWA3206 flight status page for this flight to view local times or setup timezone preferences in your user account.

Time Position Orientation Groundspeed Altitude Reporting Facility
EDT Latitude Longitude Course Direction KTS MPH feet Rate Location/Type
Mon 11:17:41 AM 39.8833 -75.2167 72° East 154 177 800  Level Philadelphia TRACON
Mon 11:18:47 AM 39.9000 -75.1500 72° East 214 246 2,900 2,318 Climbing Philadelphia TRACON
Mon 11:19:53 AM 39.9333 -75.1000 49° Northeast 235 270 5,900 2,700 Climbing Philadelphia TRACON
Mon 11:20:47 AM 40.0000 -75.1167 349° North 290 334 8,300 2,050 Climbing Philadelphia TRACON
Mon 11:21:53 AM 40.0500 -75.2167 303° West 305 351 10,000 944 Climbing Philadelphia TRACON
Mon 11:22:35 AM 40.0833 -75.3000 298° West 354 407 10,000 1,101 Level Philadelphia TRACON
Mon 11:23:42 AM 40.1375 -75.3975 306° West 375 432 12,000 2,438 Climbing New York Center
Mon 11:24:43 AM 40.1972 -75.5183 303° West 375 432 15,200 1,676 Climbing New York Center
Mon 11:26:41 AM 40.3364 -75.7322 311° West 386 444 17,000 1,213 Climbing New York Center
Mon 11:27:41 AM 40.3992 -75.8264 311° West 381 438 18,800 2,361 Climbing New York Center
Mon 11:29:00 AM 40.4513 -75.9922 281° West  Level FlightAware Approximate
Mon 11:29:44 AM 40.4742 -76.1131 281° West 386 444 24,200  Level New York Center
Mon 11:30:41 AM 40.4981 -76.2706 281° West 413 475 26,300 2,085 Climbing New York Center
Mon 11:31:42 AM 40.5242 -76.4256 283° West 433 498 28,300 2,033 Climbing New York Center
Mon 11:32:42 AM 40.5436 -76.5828 279° West 443 510 30,400 2,132 Climbing New York Center
Mon 11:33:43 AM 40.5672 -76.7378 281° West 443 510 32,600 1,400 Climbing New York Center
Mon 11:35:00 AM 40.6311 -76.9050 290° West  Level FlightAware Approximate
Mon 11:36:42 AM 40.6339 -77.2114 278° West 433 498 36,000  Level New York Center
Mon 11:37:43 AM 40.6589 -77.3644 282° West 433 498 37,200 1,091 Climbing New York Center
Mon 11:38:43 AM 40.6814 -77.5225 281° West 433 498 38,200 680 Climbing New York Center
Mon 11:41:00 AM 40.7251 -77.8254 281° West  Level FlightAware Approximate
Mon 11:41:50 AM 40.7447 -78.0014 281° West 447 514 40,000  Level Cleveland Center
Mon 11:42:00 AM 40.7340 -77.8894 278° West  Level FlightAware Approximate
Mon 11:42:50 AM 40.7647 -78.1597 280° West 447 514 40,000  Level Cleveland Center
Mon 11:43:51 AM 40.7869 -78.3178 281° West 447 514 40,000  Level Cleveland Center
Mon 11:44:48 AM 40.8067 -78.4764 279° West 447 514 40,000  Level Cleveland Center
Mon 11:45:49 AM 40.8261 -78.6375 279° West 447 514 40,000  Level Cleveland Center
Mon 11:46:51 AM 40.8519 -78.8125 281° West 447 514 40,000  Level Cleveland Center
Mon 11:47:48 AM 40.8708 -78.9686 279° West 441 507 40,000  Level Cleveland Center
Mon 11:48:48 AM 40.8917 -79.1300 280° West 447 514 40,000  Level Cleveland Center
Mon 11:49:49 AM 40.9103 -79.2892 279° West 447 514 40,000  Level Cleveland Center
Mon 11:51:00 AM 40.9298 -79.4575 279° West  Level FlightAware Approximate
Mon 11:52:48 AM 40.9711 -79.7747 279° West 447 514 40,000  Level Cleveland Center
Mon 11:53:49 AM 40.9889 -79.9339 278° West 447 514 40,000  Level Cleveland Center
Mon 11:55:00 AM 41.0118 -80.1017 280° West  Level Estimated
Mon 11:56:49 AM 41.0428 -80.4233 280° West 447 514 40,000  Level Cleveland Center
Mon 11:57:50 AM 41.0594 -80.5831 278° West 447 514 40,000  Level Cleveland Center
Mon 11:58:00 AM 41.0404 -80.4552 279° West  Level FlightAware Approximate
Mon 11:59:00 AM 41.0815 -80.7488 280° West  Level Estimated
Mon 11:59:49 AM 41.0964 -80.9083 280° West 447 514 40,000  Level Cleveland Center
Mon 12:00:50 PM 41.1125 -81.0764 277° West 447 514 40,000  Level Cleveland Center
Mon 12:01:49 PM 41.1306 -81.2475 278° West 464 534 40,000  Level Cleveland Center
Mon 12:02:00 PM 41.1424 -81.0965 280° West  Level Estimated
Mon 12:04:00 PM 41.1611 -81.5602 278° West  Level FlightAware Approximate
Mon 12:04:48 PM 41.1808 -81.7308 278° West 464 534 40,000  Level Cleveland Center
Mon 12:05:49 PM 41.1978 -81.8994 278° West 464 534 40,000  Level Cleveland Center
Mon 12:07:00 PM 41.2127 -82.0712 277° West  Level FlightAware Approximate
Mon 12:08:48 PM 41.2447 -82.4222 277° West 471 542 40,000  Level Cleveland Center
Mon 12:10:00 PM 41.2663 -82.5953 279° West  Level Estimated
Mon 12:11:27 PM 41.2906 -82.8644 279° West 490 564 40,000  Level Chicago Center
Mon 12:11:49 PM 41.2917 -82.9350 271° West 465 535 40,000  Level Cleveland Center
Mon 12:12:49 PM 41.3067 -83.1069 277° West 465 535 40,000  Level Cleveland Center
Mon 12:13:51 PM 41.3178 -83.2622 275° West 465 535 40,000  Level Cleveland Center
Mon 12:14:00 PM 41.2995 -83.0884 277° West  Level FlightAware Approximate
Mon 12:14:48 PM 41.3344 -83.4372 277° West 465 535 40,000  Level Cleveland Center
Mon 12:15:48 PM 41.3486 -83.6119 276° West 472 543 40,000  Level Cleveland Center
Mon 12:16:49 PM 41.3628 -83.7842 276° West 477 549 40,000  Level Cleveland Center
Mon 12:17:49 PM 41.3764 -83.9564 276° West 477 549 40,000 -1,940 Level Cleveland Center
Mon 12:20:44 PM 41.4167 -84.4511 276° West 468 539 32,400 -2,532 Descending Chicago Center
Mon 12:21:46 PM 41.4308 -84.6283 276° West 480 552 30,000 -774 Descending Chicago Center
Mon 12:23:00 PM 41.4380 -84.8086 275° West  Level FlightAware Approximate
Mon 12:23:50 PM 41.4583 -85.0111 275° West 474 545 30,000  Level Chicago Center
Mon 12:25:00 PM 41.4661 -85.1814 274° West  Level FlightAware Approximate
Mon 12:26:56 PM 41.4919 -85.5161 270° West 433 498 24,000  Level Chicago Center
Mon 12:28:00 PM 41.5136 -85.6695 275° West  Level Estimated
Mon 12:29:00 PM 41.5117 -85.8219 275° West 405 466 20,600  Level Chicago Center
Mon 12:30:02 PM 41.5203 -85.9703 274° West 396 456 19,000 -2,226 Descending Chicago Center
Mon 12:32:00 PM 41.5167 -86.1994 270° West  Level FlightAware Approximate
Mon 12:32:06 PM 41.5233 -86.2900 271° West 391 450 13,700  Level Chicago Center
Mon 12:33:08 PM 41.5225 -86.4269 270° West 372 428 12,300 -1,194 Descending Chicago Center
Mon 12:35:12 PM 41.5208 -86.6953 270° West 361 415 10,000 -1,000 Descending Chicago Center
Mon 12:36:14 PM 41.5183 -86.8256 269° West 322 371 9,200 -954 Descending Chicago Center
Mon 12:38:27 PM 41.5167 -87.0833 270° West 295 339 6,900 -968 Descending Chicago TRACON
Mon 12:39:20 PM 41.5175 -87.1567 271° West 291 335 6,200 -678 Descending Chicago Center
Mon 12:40:22 PM 41.5303 -87.2819 278° West 285 328 5,600 -774 Descending Chicago Center
Mon 12:41:24 PM 41.5375 -87.3842 275° West 282 325 4,600 -768 Descending Chicago Center
Mon 12:42:27 PM 41.5467 -87.4875 277° West 282 325 4,000 -288 Descending Chicago Center
Mon 12:43:29 PM 41.5544 -87.5881 276° West 279 321 4,000  Level Chicago Center
Mon 12:45:33 PM 41.5697 -87.8064 275° West 270 311 4,000 -194 Level Chicago Center
Mon 12:46:35 PM 41.5881 -87.8736 290° West 230 265 3,400 -484 Descending Chicago Center
Mon 12:48:00 PM 41.7210 -87.7923 25° Northeast  Level Estimated
Mon 12:48:39 PM 41.6633 -87.9039 25° Northeast 179 206 2,500  Level Chicago Center
Mon 12:49:41 PM 41.7011 -87.8600 41° Northeast 160 184 2,500 -165 Level Chicago Center
Mon 12:50:28 PM 41.7167 -87.8333 52° Northeast 129 148 2,200 -505 Descending Chicago TRACON
Mon 12:51:28 PM 41.7500 -87.8000 37° Northeast 126 145 1,600 -600 Descending Chicago TRACON
Mon 12:54:00 PM 41.7833 -87.7500 43° Northeast  Level FlightAware Approximate

Login

Don't have an account? Register now (free) for customized features, flight alerts, and more!